Cmb Yasmine — VRIC4 — position and weather

sailwx.info

Track history (hours):
 
Tides and Currents Weather Stations Pressure Air Temp Water Temp Dewpoint Dewpoint Depression Visibility Wind Speed Wind Dir Waves Ship Positions

Cmb Yasmine

Last reported at 2017-Dec-07 12:56 UTC. Time now 2017-Dec-11 11:26 UTC.
Position S 05°11' E 011°05'.

Length 180 m; draft 6.2 m.

Type: Cargo ship. MMSI: 477802800.

Date/timePositionNaut miles runAvg speedWind from/ knotsBaromVisibWave heightAir tempDewpointWater temp
2017-Dec-07 12:56S 05°11' E 011°05'613.6
2017-Dec-07 12:27S 05°09' E 011°12'713.7
2017-Dec-07 11:56S 05°06' E 011°18'1213.6
2017-Dec-07 11:05S 04°59' E 011°28'213.3
2017-Dec-07 10:56S 04°58' E 011°29'  
2017-Dec-02 05:04S 05°05' E 011°30'112.1
2017-Dec-02 04:59S 05°05' E 011°29'612.6
2017-Dec-02 04:30S 05°05' E 011°23'612.4
2017-Dec-02 04:00S 05°03' E 011°17'712.8
2017-Dec-02 03:29S 05°00' E 011°11'1112.9
2017-Dec-02 02:40S 04°56' E 011°01'  
Track history (hours):
 
Tides and Currents Weather Stations Pressure Air Temp Water Temp Dewpoint Dewpoint Depression Visibility Wind Speed Wind Dir Waves Ship Positions

Cmb Yasmine

Last reported at 2017-Dec-07 12:56 UTC. Time now 2017-Dec-11 11:26 UTC.
Position S 05°11' E 011°05'.

Length 180 m; draft 6.2 m.

Type: Cargo ship. MMSI: 477802800.

Date/timePositionNaut miles runAvg speedWind from/ knotsBaromVisibWave heightAir tempDewpointWater temp
2017-Dec-07 12:56S 05°11' E 011°05'613.6
2017-Dec-07 12:27S 05°09' E 011°12'713.7
2017-Dec-07 11:56S 05°06' E 011°18'1213.6
2017-Dec-07 11:05S 04°59' E 011°28'213.3
2017-Dec-07 10:56S 04°58' E 011°29'  
2017-Dec-02 05:04S 05°05' E 011°30'112.1
2017-Dec-02 04:59S 05°05' E 011°29'612.6
2017-Dec-02 04:30S 05°05' E 011°23'612.4
2017-Dec-02 04:00S 05°03' E 011°17'712.8
2017-Dec-02 03:29S 05°00' E 011°11'1112.9
2017-Dec-02 02:40S 04°56' E 011°01'  

Dump ship's entire track history